Time;durP1;ratioP1;P1;durP2;ratioP2;P2;SDS_P1;SDS_P2;PMS_P1;PMS_P2;Temp;Humidity;BMP_temperature;BMP_pressure;BME280_temperature;BME280_humidity;BME280_pressure;Samples;Min_cycle;Max_cycle;Signal;HPM_P1;HPM_P2
2022/01/30 00:01:28;;;;;;;34.97;6.53;;;7.80;99.90;;;;;;5052154;28;20664;-73
2022/01/30 00:03:54;;;;;;;22.87;6.40;;;7.80;99.90;;;;;;5052596;28;20256;-72
2022/01/30 00:06:20;;;;;;;23.70;6.20;;;7.70;99.90;;;;;;5052739;28;20208;-73
2022/01/30 00:08:47;;;;;;;27.53;6.13;;;7.70;99.90;;;;;;5052687;28;20625;-72
2022/01/30 00:11:18;;;;;;;27.00;6.80;;;7.70;99.90;;;;;;5052313;28;20707;-71
2022/01/30 00:13:44;;;;;;;26.60;6.07;;;7.70;99.90;;;;;;5035400;28;20197;-72
2022/01/30 00:16:10;;;;;;;24.10;6.63;;;7.60;99.90;;;;;;5052113;28;20626;-70
2022/01/30 00:23:41;;;;;;;27.80;7.37;;;7.50;99.90;;;;;;5052439;28;20170;-73
2022/01/30 00:26:08;;;;;;;25.30;6.50;;;7.50;99.90;;;;;;5052269;28;20327;-73
2022/01/30 00:28:34;;;;;;;25.03;6.30;;;7.50;99.90;;;;;;5055068;28;20294;-72
2022/01/30 00:30:59;;;;;;;21.70;6.03;;;7.50;99.90;;;;;;5055434;28;20296;-71
2022/01/30 00:33:26;;;;;;;24.77;5.73;;;7.40;99.90;;;;;;5055894;28;20169;-71
2022/01/30 00:35:53;;;;;;;23.03;5.93;;;7.40;99.90;;;;;;5056026;28;20220;-72
2022/01/30 00:38:21;;;;;;;25.90;6.30;;;7.30;99.90;;;;;;5055870;28;20169;-71
2022/01/30 00:40:47;;;;;;;25.17;6.57;;;7.30;99.90;;;;;;5055461;28;20189;-71
2022/01/30 00:43:14;;;;;;;25.53;6.03;;;7.30;99.90;;;;;;5055429;28;20185;-72
2022/01/30 00:45:39;;;;;;;29.33;7.20;;;7.30;99.90;;;;;;5055093;28;20518;-72
2022/01/30 00:48:05;;;;;;;25.07;6.07;;;7.30;99.90;;;;;;5055613;28;20219;-73
2022/01/30 00:50:32;;;;;;;26.67;7.00;;;7.30;99.90;;;;;;5055424;28;20218;-72
2022/01/30 00:52:58;;;;;;;24.93;5.83;;;7.20;99.90;;;;;;5055334;28;20173;-71
2022/01/30 00:55:28;;;;;;;25.67;6.37;;;7.20;99.90;;;;;;5055465;28;20166;-73
2022/01/30 00:57:55;;;;;;;27.67;6.80;;;7.20;99.90;;;;;;5055260;28;20201;-71
2022/01/30 01:00:22;;;;;;;26.13;5.60;;;7.20;99.90;;;;;;5054774;28;20178;-71
2022/01/30 01:02:48;;;;;;;25.00;6.80;;;7.00;99.90;;;;;;5055305;28;20181;-72
2022/01/30 01:05:14;;;;;;;29.57;5.97;;;7.10;99.90;;;;;;5055244;28;20177;-71
2022/01/30 01:07:44;;;;;;;26.47;6.67;;;7.10;99.90;;;;;;5055135;28;20227;-72
2022/01/30 01:23:56;;;;;;;23.80;5.60;;;7.30;99.90;;;;;;5034521;28;20193;-73
2022/01/30 01:26:23;;;;;;;20.80;5.30;;;7.30;99.90;;;;;;5054477;28;20213;-71
2022/01/30 01:28:50;;;;;;;19.50;5.23;;;7.20;99.90;;;;;;5054349;28;20563;-72
2022/01/30 01:31:16;;;;;;;25.07;5.70;;;7.20;99.90;;;;;;5054639;28;20208;-72
2022/01/30 01:36:08;;;;;;;20.43;5.67;;;7.10;99.90;;;;;;5054523;28;20199;-71
2022/01/30 01:38:34;;;;;;;28.93;6.10;;;7.10;99.90;;;;;;5053810;28;20685;-72
2022/01/30 01:41:00;;;;;;;21.53;5.30;;;7.00;99.90;;;;;;5054326;28;20648;-71
2022/01/30 01:43:26;;;;;;;21.83;5.30;;;7.00;99.90;;;;;;5053891;28;20166;-72
2022/01/30 01:45:54;;;;;;;24.03;5.57;;;7.00;99.90;;;;;;5054440;28;20170;-71
2022/01/30 01:48:20;;;;;;;22.40;5.53;;;6.90;99.90;;;;;;5054499;28;20161;-72
2022/01/30 01:50:53;;;;;;;19.10;4.77;;;6.80;99.90;;;;;;5054285;28;20612;-72
2022/01/30 01:53:23;;;;;;;19.87;5.57;;;6.80;99.90;;;;;;5054334;28;20172;-71
2022/01/30 01:55:50;;;;;;;23.13;5.73;;;6.80;99.90;;;;;;5054307;28;20165;-71
2022/01/30 01:58:16;;;;;;;16.87;5.33;;;6.80;99.90;;;;;;5053848;28;20161;-72
2022/01/30 02:00:42;;;;;;;27.87;7.63;;;6.70;99.90;;;;;;5054217;28;20632;-73
2022/01/30 02:03:09;;;;;;;25.87;6.53;;;6.60;99.90;;;;;;5053998;28;20641;-73
2022/01/30 02:05:36;;;;;;;20.73;6.17;;;6.70;99.90;;;;;;5054089;28;20200;-73
2022/01/30 02:24:32;;;;;;;19.30;4.83;;;6.60;99.90;;;;;;5053751;28;20196;-72
2022/01/30 02:26:58;;;;;;;26.53;5.97;;;6.50;99.90;;;;;;5053026;28;20664;-71
2022/01/30 02:29:23;;;;;;;23.87;5.07;;;6.50;99.90;;;;;;5053624;28;20209;-72
2022/01/30 02:31:49;;;;;;;26.23;5.67;;;6.50;99.90;;;;;;5053714;28;20181;-72
2022/01/30 02:34:15;;;;;;;25.17;6.03;;;6.50;99.90;;;;;;5035765;28;20177;-72
2022/01/30 02:36:47;;;;;;;25.57;6.40;;;6.50;99.90;;;;;;5053557;28;20199;-71
2022/01/30 02:39:13;;;;;;;25.67;5.13;;;6.50;99.90;;;;;;5053334;28;20187;-72
2022/01/30 02:41:40;;;;;;;21.63;5.00;;;6.40;99.90;;;;;;5052647;28;20258;-71
2022/01/30 02:44:15;;;;;;;23.17;5.20;;;6.40;99.90;;;;;;5053430;28;20165;-71
2022/01/30 02:46:45;;;;;;;19.63;5.33;;;6.50;99.90;;;;;;5053435;28;20267;-70
2022/01/30 02:52:00;;;;;;;25.43;5.77;;;6.50;99.90;;;;;;5012155;28;20181;-71
2022/01/30 02:54:29;;;;;;;21.57;5.87;;;6.50;99.90;;;;;;5053109;28;20175;-72
2022/01/30 02:56:54;;;;;;;20.97;5.63;;;6.50;99.90;;;;;;5052761;28;20177;-72
2022/01/30 02:59:20;;;;;;;22.73;5.40;;;6.50;99.90;;;;;;5035352;28;20177;-72
2022/01/30 03:01:46;;;;;;;20.53;5.50;;;6.50;99.90;;;;;;5053189;28;20200;-73
2022/01/30 03:04:11;;;;;;;24.57;5.17;;;6.60;99.90;;;;;;5053186;28;20169;-71
2022/01/30 03:06:37;;;;;;;23.73;5.90;;;6.60;99.90;;;;;;5053088;28;20161;-71
2022/01/30 03:09:05;;;;;;;22.33;5.10;;;6.50;99.90;;;;;;5052594;28;20173;-72
2022/01/30 03:11:31;;;;;;;26.03;5.57;;;6.50;99.90;;;;;;5052812;28;20185;-71
2022/01/30 03:13:57;;;;;;;22.73;5.87;;;6.40;99.90;;;;;;5053287;28;20166;-72
2022/01/30 03:16:23;;;;;;;20.77;5.60;;;6.30;99.90;;;;;;5053125;28;20169;-71
2022/01/30 03:18:49;;;;;;;27.77;5.57;;;6.40;99.90;;;;;;5053262;28;20730;-71
2022/01/30 03:21:15;;;;;;;20.13;5.40;;;6.30;99.90;;;;;;5052862;28;20271;-71
2022/01/30 03:23:40;;;;;;;26.70;6.20;;;6.20;99.90;;;;;;5052682;28;20192;-72
2022/01/30 03:26:07;;;;;;;23.13;5.23;;;6.10;99.90;;;;;;5052418;28;20316;-71
2022/01/30 03:28:33;;;;;;;25.10;5.00;;;6.20;99.90;;;;;;5053050;28;20692;-70
2022/01/30 03:31:03;;;;;;;24.83;5.67;;;6.20;99.90;;;;;;5052809;28;20342;-71
2022/01/30 03:33:29;;;;;;;23.80;5.60;;;6.10;99.90;;;;;;5052929;28;20173;-70
2022/01/30 03:35:55;;;;;;;23.27;5.37;;;6.10;99.90;;;;;;5052657;28;20273;-71
2022/01/30 03:38:22;;;;;;;20.37;5.73;;;6.10;99.90;;;;;;5052935;28;20617;-71
2022/01/30 03:40:48;;;;;;;20.87;6.00;;;6.10;99.90;;;;;;5052387;28;20200;-71
2022/01/30 03:43:15;;;;;;;27.40;5.77;;;6.10;99.90;;;;;;5052934;28;20234;-72
2022/01/30 03:45:41;;;;;;;23.23;6.70;;;6.00;99.90;;;;;;5034887;28;20638;-71
2022/01/30 03:48:07;;;;;;;27.93;10.57;;;6.00;99.90;;;;;;5052823;28;20166;-70
2022/01/30 03:50:33;;;;;;;26.90;5.40;;;6.00;99.90;;;;;;5052362;28;20296;-71
2022/01/30 03:52:59;;;;;;;20.70;5.33;;;5.90;99.90;;;;;;5052424;28;20181;-72
2022/01/30 03:55:25;;;;;;;18.10;5.07;;;5.90;99.90;;;;;;5052460;28;20185;-71
2022/01/30 03:57:51;;;;;;;23.03;5.37;;;5.90;99.90;;;;;;5052643;28;20174;-71
2022/01/30 04:00:17;;;;;;;24.97;5.20;;;5.80;99.90;;;;;;5052610;28;20220;-71
2022/01/30 04:02:42;;;;;;;21.07;5.50;;;5.70;99.90;;;;;;5054239;28;20162;-71
2022/01/30 04:05:08;;;;;;;22.37;5.33;;;5.80;99.90;;;;;;5038333;28;20177;-71
2022/01/30 04:07:35;;;;;;;28.00;7.77;;;5.80;99.90;;;;;;5056208;28;20172;-71
2022/01/30 04:10:01;;;;;;;25.53;5.57;;;5.80;99.90;;;;;;5056312;28;20201;-70
2022/01/30 04:12:27;;;;;;;24.80;5.60;;;5.80;99.90;;;;;;5038526;28;20549;-71
2022/01/30 04:14:53;;;;;;;15.67;4.77;;;5.70;99.90;;;;;;5056310;28;20176;-71
2022/01/30 04:17:20;;;;;;;24.30;5.60;;;5.60;99.90;;;;;;5056142;28;20640;-71
2022/01/30 04:19:46;;;;;;;22.57;6.10;;;5.60;99.90;;;;;;5055833;28;20232;-72
2022/01/30 04:22:11;;;;;;;25.20;5.67;;;5.70;99.90;;;;;;5055642;28;20220;-71
2022/01/30 04:24:38;;;;;;;25.07;7.23;;;5.70;99.90;;;;;;5056142;28;20197;-71
2022/01/30 04:27:04;;;;;;;22.33;5.80;;;5.70;99.90;;;;;;5055856;28;20818;-71
2022/01/30 04:29:30;;;;;;;18.80;4.83;;;5.70;99.90;;;;;;5055933;28;20212;-71
2022/01/30 04:31:55;;;;;;;21.03;5.40;;;5.60;99.90;;;;;;5038064;28;20529;-71
2022/01/30 04:34:22;;;;;;;19.70;5.20;;;5.50;99.90;;;;;;5055842;28;20629;-71
2022/01/30 04:42:28;;;;;;;29.27;5.57;;;5.50;99.90;;;;;;5055802;28;20166;-72
2022/01/30 04:53:39;;;;;;;22.83;5.17;;;5.50;99.90;;;;;;5055391;28;20191;-71
2022/01/30 05:06:55;;;;;;;18.33;5.50;;;5.50;99.90;;;;;;5013685;28;20582;-72
2022/01/30 05:09:20;;;;;;;23.03;5.00;;;5.30;99.90;;;;;;5054954;28;20525;-71
2022/01/30 05:11:46;;;;;;;25.50;5.53;;;5.30;99.90;;;;;;5054904;28;20188;-71
2022/01/30 05:14:14;;;;;;;20.33;5.27;;;5.30;99.90;;;;;;5054640;28;20264;-71
2022/01/30 05:16:39;;;;;;;23.20;5.00;;;5.20;99.90;;;;;;5054895;28;20185;-71
2022/01/30 05:19:05;;;;;;;23.10;5.37;;;5.20;99.90;;;;;;5054772;28;20212;-71
2022/01/30 05:21:31;;;;;;;21.23;5.70;;;5.20;99.90;;;;;;5054351;28;20184;-71
2022/01/30 05:23:57;;;;;;;25.20;5.70;;;5.20;99.90;;;;;;5055006;28;20578;-71
2022/01/30 05:26:25;;;;;;;26.10;5.67;;;5.20;99.90;;;;;;5054423;28;20699;-71
2022/01/30 05:28:52;;;;;;;18.50;5.43;;;5.20;99.90;;;;;;5037165;28;20173;-71
2022/01/30 05:31:18;;;;;;;26.87;5.53;;;5.10;99.90;;;;;;5054672;28;20276;-72
2022/01/30 05:33:44;;;;;;;25.57;5.73;;;5.10;99.90;;;;;;5054404;28;20635;-70
2022/01/30 05:36:09;;;;;;;19.53;5.67;;;5.10;99.90;;;;;;5036275;28;20548;-72
2022/01/30 05:38:36;;;;;;;20.30;5.10;;;5.10;99.90;;;;;;5054713;28;20248;-72
2022/01/30 05:41:02;;;;;;;20.60;5.10;;;5.10;99.90;;;;;;5054241;28;20204;-71
2022/01/30 05:43:30;;;;;;;26.70;9.07;;;5.10;99.90;;;;;;5054568;28;20197;-71
2022/01/30 05:46:10;;;;;;;30.07;5.93;;;5.10;99.90;;;;;;5054084;28;20593;-72
2022/01/30 05:48:36;;;;;;;20.53;5.27;;;5.20;99.90;;;;;;5053661;28;20179;-71
2022/01/30 05:51:02;;;;;;;20.23;5.90;;;5.30;99.90;;;;;;5053297;28;20197;-71
2022/01/30 05:53:27;;;;;;;26.03;5.90;;;5.30;99.90;;;;;;5054128;28;20264;-71
2022/01/30 05:55:53;;;;;;;23.40;5.23;;;5.30;99.90;;;;;;5053972;28;20189;-71
2022/01/30 05:58:19;;;;;;;23.77;5.63;;;5.30;99.90;;;;;;5054194;28;20181;-70
2022/01/30 06:00:45;;;;;;;23.13;5.70;;;5.20;99.90;;;;;;5054213;28;20182;-71
2022/01/30 06:03:10;;;;;;;22.97;6.07;;;5.20;99.90;;;;;;5053883;28;20632;-71
2022/01/30 06:05:36;;;;;;;17.03;5.03;;;5.20;99.90;;;;;;5053777;28;20165;-71
2022/01/30 06:08:11;;;;;;;25.20;5.90;;;5.30;99.90;;;;;;5053649;28;20181;-71
2022/01/30 06:10:37;;;;;;;25.37;5.23;;;5.30;99.90;;;;;;5053583;28;20212;-71
2022/01/30 06:13:02;;;;;;;24.63;6.03;;;5.30;99.90;;;;;;5053847;28;20247;-71
2022/01/30 06:15:28;;;;;;;21.00;5.47;;;5.40;99.90;;;;;;5053342;28;20576;-71
2022/01/30 06:17:53;;;;;;;21.63;6.13;;;5.50;99.90;;;;;;5053645;28;20176;-71
2022/01/30 06:20:19;;;;;;;25.83;5.30;;;5.60;99.90;;;;;;5053271;28;20174;-71
2022/01/30 06:22:45;;;;;;;27.10;5.93;;;5.60;99.90;;;;;;5053565;28;20262;-71
2022/01/30 06:25:10;;;;;;;17.33;5.03;;;5.50;99.90;;;;;;5052909;28;20287;-71
2022/01/30 06:27:36;;;;;;;25.17;5.60;;;5.40;99.90;;;;;;5053630;28;20215;-71
2022/01/30 06:30:06;;;;;;;22.40;4.93;;;5.50;99.90;;;;;;5053463;28;20211;-71
2022/01/30 06:32:32;;;;;;;17.10;5.20;;;5.50;99.90;;;;;;5035443;28;20609;-70
2022/01/30 06:34:58;;;;;;;29.87;6.17;;;5.50;99.90;;;;;;5053134;28;20263;-70
2022/01/30 06:37:23;;;;;;;21.43;5.60;;;5.50;99.90;;;;;;5035887;28;20221;-71
2022/01/30 06:39:49;;;;;;;22.93;5.87;;;5.50;99.90;;;;;;5053465;28;20648;-71
2022/01/30 06:42:16;;;;;;;22.83;5.83;;;5.50;99.90;;;;;;5053295;28;20645;-71
2022/01/30 06:44:43;;;;;;;29.67;5.80;;;5.50;99.90;;;;;;5053083;28;20199;-70
2022/01/30 06:47:09;;;;;;;24.73;5.20;;;5.50;99.90;;;;;;5052691;28;20640;-71
2022/01/30 06:49:35;;;;;;;27.37;5.60;;;5.60;99.90;;;;;;5053122;28;20215;-70
2022/01/30 06:52:00;;;;;;;23.47;6.10;;;5.60;99.90;;;;;;5053119;28;20181;-71
2022/01/30 06:54:26;;;;;;;20.73;4.93;;;5.60;99.90;;;;;;5053109;28;20173;-71
2022/01/30 06:56:52;;;;;;;19.80;5.70;;;5.50;99.90;;;;;;5053250;28;20173;-71
2022/01/30 06:59:18;;;;;;;22.53;5.33;;;5.50;99.90;;;;;;5052813;28;20311;-71
2022/01/30 07:01:43;;;;;;;18.53;5.47;;;5.50;99.90;;;;;;5052648;28;20648;-71
2022/01/30 07:04:09;;;;;;;21.53;5.27;;;5.40;99.90;;;;;;5052938;28;20196;-71
2022/01/30 07:06:34;;;;;;;21.53;5.47;;;5.40;99.90;;;;;;5052411;28;20555;-71
2022/01/30 07:09:00;;;;;;;27.30;6.33;;;5.40;99.90;;;;;;5052937;28;20250;-71
2022/01/30 07:11:26;;;;;;;18.53;5.57;;;5.40;99.90;;;;;;5052686;28;20204;-71
2022/01/30 07:13:51;;;;;;;20.27;5.83;;;5.40;99.90;;;;;;5052661;28;20181;-71
2022/01/30 07:16:17;;;;;;;26.53;5.60;;;5.30;99.90;;;;;;5051999;28;20530;-72
2022/01/30 07:18:43;;;;;;;25.13;5.90;;;5.30;99.90;;;;;;5052790;28;20196;-72
2022/01/30 07:21:09;;;;;;;21.83;5.50;;;5.20;99.90;;;;;;5052534;28;20185;-71
2022/01/30 07:23:39;;;;;;;22.03;5.60;;;5.30;99.90;;;;;;5052451;28;20169;-72
2022/01/30 07:26:04;;;;;;;22.70;6.00;;;5.30;99.90;;;;;;5052446;28;20681;-71
2022/01/30 07:28:30;;;;;;;20.47;5.13;;;5.30;99.90;;;;;;5034537;28;20180;-71
2022/01/30 07:30:56;;;;;;;26.10;6.63;;;5.40;99.90;;;;;;5052309;28;20267;-71
2022/01/30 07:33:23;;;;;;;18.43;5.70;;;5.50;99.90;;;;;;5053052;28;20161;-71
2022/01/30 07:35:52;;;;;;;23.03;6.07;;;5.60;99.90;;;;;;5052194;28;20632;-71
2022/01/30 07:38:19;;;;;;;21.67;6.90;;;5.60;99.90;;;;;;5055291;28;20260;-71
2022/01/30 07:40:44;;;;;;;21.50;5.63;;;5.80;99.90;;;;;;5056632;28;20235;-71
2022/01/30 07:43:10;;;;;;;22.93;5.37;;;5.90;99.90;;;;;;5056378;28;20574;-71
2022/01/30 07:45:36;;;;;;;24.57;6.00;;;6.10;99.90;;;;;;5056202;28;20526;-72
2022/01/30 07:48:02;;;;;;;25.17;6.00;;;6.20;99.90;;;;;;5037997;28;20176;-71
2022/01/30 07:50:29;;;;;;;27.33;5.20;;;6.30;99.90;;;;;;5056339;28;20353;-71
2022/01/30 07:52:54;;;;;;;26.00;5.30;;;6.30;99.90;;;;;;5056528;28;20165;-73
2022/01/30 07:55:20;;;;;;;27.17;5.90;;;6.40;99.90;;;;;;5056460;28;20280;-72
2022/01/30 07:57:46;;;;;;;27.83;5.87;;;6.50;99.90;;;;;;5055865;28;20660;-72
2022/01/30 08:00:12;;;;;;;20.97;5.67;;;6.30;99.90;;;;;;5055960;28;20173;-71
2022/01/30 08:02:38;;;;;;;22.20;5.70;;;6.40;99.90;;;;;;5055927;28;20180;-71
2022/01/30 08:05:04;;;;;;;28.63;6.40;;;6.40;99.90;;;;;;5056118;28;20637;-71
2022/01/30 08:07:31;;;;;;;22.17;5.60;;;6.50;99.90;;;;;;5056289;28;20657;-71
2022/01/30 08:09:57;;;;;;;18.37;5.90;;;6.50;99.90;;;;;;5056117;28;20224;-71
2022/01/30 08:12:23;;;;;;;24.47;5.93;;;6.60;99.90;;;;;;5056153;28;20165;-71
2022/01/30 08:14:49;;;;;;;25.07;6.07;;;6.70;99.90;;;;;;5055286;28;20178;-72
2022/01/30 08:17:20;;;;;;;20.70;5.53;;;7.00;99.90;;;;;;5055551;28;20647;-72
2022/01/30 08:19:47;;;;;;;23.47;5.27;;;6.90;99.90;;;;;;5056217;28;20173;-72
2022/01/30 08:22:13;;;;;;;21.37;5.10;;;6.90;99.90;;;;;;5055856;28;20165;-72
2022/01/30 08:24:38;;;;;;;25.03;5.67;;;7.10;99.90;;;;;;5055728;28;20165;-72
2022/01/30 08:27:05;;;;;;;23.40;5.60;;;7.60;99.90;;;;;;5055525;28;20225;-73
2022/01/30 08:29:31;;;;;;;20.53;5.07;;;8.00;99.90;;;;;;5055000;28;20176;-72
2022/01/30 08:31:58;;;;;;;18.27;5.27;;;8.10;99.90;;;;;;5055776;28;20176;-72
2022/01/30 08:34:24;;;;;;;20.10;5.03;;;8.10;99.90;;;;;;5056038;28;20261;-72
2022/01/30 08:36:50;;;;;;;17.00;4.83;;;8.10;99.90;;;;;;5055587;28;20177;-72
2022/01/30 08:39:15;;;;;;;23.33;5.00;;;7.90;99.90;;;;;;5055307;28;20193;-72
2022/01/30 08:41:41;;;;;;;33.57;5.93;;;8.00;99.90;;;;;;5055501;28;20644;-72
2022/01/30 08:44:07;;;;;;;17.93;5.03;;;8.10;99.90;;;;;;5036746;28;20258;-74
2022/01/30 08:46:32;;;;;;;21.50;5.73;;;8.10;99.90;;;;;;5055372;28;20647;-72
2022/01/30 08:48:58;;;;;;;22.20;5.73;;;8.00;99.90;;;;;;5054926;28;20594;-72
2022/01/30 08:51:24;;;;;;;22.67;5.60;;;8.00;99.90;;;;;;5054827;28;20221;-72
2022/01/30 08:53:50;;;;;;;26.47;5.70;;;8.00;99.90;;;;;;5055085;28;20184;-73
2022/01/30 08:56:15;;;;;;;21.13;5.40;;;8.00;99.90;;;;;;5054886;28;20511;-73
2022/01/30 08:58:41;;;;;;;21.80;5.03;;;7.90;99.90;;;;;;5054350;28;20174;-73
2022/01/30 09:01:08;;;;;;;19.03;5.27;;;8.00;99.90;;;;;;5054605;28;20621;-72
2022/01/30 09:03:34;;;;;;;24.20;5.33;;;7.90;99.90;;;;;;5055145;28;20176;-72
2022/01/30 09:05:59;;;;;;;16.57;5.00;;;7.80;99.90;;;;;;5055114;28;20173;-72
2022/01/30 09:08:25;;;;;;;20.67;7.17;;;7.90;99.90;;;;;;5054795;28;20562;-72
2022/01/30 09:10:51;;;;;;;21.50;6.33;;;7.90;99.90;;;;;;5054710;28;20251;-72
2022/01/30 09:13:16;;;;;;;26.03;8.57;;;7.90;99.90;;;;;;5053944;28;20211;-72
2022/01/30 09:15:43;;;;;;;16.37;5.60;;;8.00;99.90;;;;;;5054836;28;20239;-72
2022/01/30 09:18:10;;;;;;;21.60;5.00;;;8.10;99.90;;;;;;5054792;28;20166;-73
2022/01/30 09:20:38;;;;;;;17.50;6.13;;;8.20;99.90;;;;;;5054813;28;20208;-72
2022/01/30 09:23:04;;;;;;;18.33;5.73;;;8.30;99.90;;;;;;5054788;28;20166;-72
2022/01/30 09:25:29;;;;;;;21.47;7.20;;;8.10;99.90;;;;;;5053430;28;20312;-71
2022/01/30 09:27:55;;;;;;;14.90;6.10;;;8.20;99.90;;;;;;5053923;28;20246;-72
2022/01/30 09:30:21;;;;;;;18.40;5.60;;;8.60;99.90;;;;;;5054620;28;20691;-74
2022/01/30 09:32:47;;;;;;;17.67;5.63;;;9.80;99.90;;;;;;5054936;28;20592;-73
2022/01/30 09:35:12;;;;;;;13.43;5.00;;;10.70;99.90;;;;;;5054179;28;20205;-73
2022/01/30 09:37:38;;;;;;;16.10;5.70;;;10.90;99.90;;;;;;5054571;28;20215;-73
2022/01/30 09:40:05;;;;;;;17.67;5.87;;;10.60;99.60;;;;;;5053659;28;20229;-72
2022/01/30 09:42:31;;;;;;;19.70;6.07;;;10.30;99.90;;;;;;5053760;28;20173;-74
2022/01/30 09:45:00;;;;;;;20.33;5.63;;;10.60;58.80;;;;;;5054404;28;20180;-73
2022/01/30 09:47:27;;;;;;;21.27;5.97;;;11.30;99.90;;;;;;5053977;28;20176;-73
2022/01/30 09:49:53;;;;;;;14.83;6.30;;;12.10;1.00;;;;;;5053056;28;20205;-73
2022/01/30 09:52:20;;;;;;;18.63;5.90;;;13.20;99.30;;;;;;5054295;28;20637;-73
2022/01/30 09:54:48;;;;;;;15.17;5.77;;;14.10;95.80;;;;;;5053803;28;20204;-73
2022/01/30 09:57:14;;;;;;;16.40;7.10;;;15.00;1.00;;;;;;5052472;28;20181;-74
2022/01/30 09:59:39;;;;;;;15.63;6.65;;;15.00;1.00;;;;;;5053274;28;20191;-75
2022/01/30 10:02:06;;;;;;;22.38;9.93;;;15.20;1.00;;;;;;5054271;28;20264;-75
2022/01/30 10:04:33;;;;;;;17.23;5.60;;;15.80;1.00;;;;;;5054189;28;20222;-75
2022/01/30 10:07:04;;;;;;;17.10;5.80;;;16.50;1.00;;;;;;5053346;28;20239;-76
2022/01/30 10:09:34;;;;;;;17.23;5.57;;;17.30;99.90;;;;;;5053556;28;20204;-76
2022/01/30 10:12:19;;;;;;;16.65;5.93;;;17.00;99.90;;;;;;5053386;28;20181;-75
2022/01/30 10:15:06;;;;;;;14.50;5.72;;;17.30;99.90;;;;;;5036332;28;20594;-75
2022/01/30 10:17:40;;;;;;;14.85;5.55;;;17.20;99.90;;;;;;5054139;28;20176;-76
2022/01/30 10:20:19;;;;;;;16.35;7.80;;;17.40;99.90;;;;;;5053124;28;20206;-75
2022/01/30 10:23:08;;;;;;;15.60;5.45;;;17.80;99.90;;;;;;5053251;28;20173;-76
2022/01/30 10:25:48;;;;;;;16.08;5.82;;;18.10;99.90;;;;;;5053182;28;20224;-76
2022/01/30 10:28:16;;;;;;;16.33;6.65;;;18.20;99.90;;;;;;5053199;28;20169;-75
2022/01/30 10:30:53;;;;;;;15.15;5.65;;;18.30;99.90;;;;;;5053347;28;20232;-76
2022/01/30 10:33:21;;;;;;;9.40;4.90;;;18.40;99.90;;;;;;5053582;28;20628;-75
2022/01/30 10:35:58;;;;;;;15.65;5.65;;;18.70;99.90;;;;;;5053432;28;20183;-77
2022/01/30 10:38:25;;;;;;;16.27;5.85;;;18.60;99.90;;;;;;5052497;28;20215;-76
2022/01/30 10:40:53;;;;;;;21.70;6.30;;;18.90;99.90;;;;;;5052165;28;20231;-76
2022/01/30 10:43:18;;;;;;;17.48;5.70;;;18.40;99.90;;;;;;5053464;28;20169;-76
2022/01/30 10:45:44;;;;;;;10.95;5.35;;;18.30;99.90;;;;;;5053181;28;20281;-76
2022/01/30 10:48:12;;;;;;;11.77;5.13;;;18.80;99.90;;;;;;5053804;28;20632;-77
2022/01/30 10:50:42;;;;;;;13.60;5.38;;;19.20;99.90;;;;;;5053066;28;20205;-78
2022/01/30 10:53:17;;;;;;;15.70;5.13;;;18.70;99.90;;;;;;5052569;28;20188;-76
2022/01/30 10:55:44;;;;;;;21.20;7.28;;;19.00;99.90;;;;;;5052698;28;20271;-76
2022/01/30 10:58:18;;;;;;;16.95;5.18;;;18.50;99.90;;;;;;5052887;28;20177;-76
2022/01/30 11:00:48;;;;;;;14.35;5.40;;;19.00;99.90;;;;;;5052616;28;20264;-76
2022/01/30 11:03:39;;;;;;;14.82;5.55;;;18.50;99.90;;;;;;5052712;28;20161;-76
2022/01/30 11:06:08;;;;;;;11.82;4.80;;;18.90;99.90;;;;;;5052761;28;20173;-77
2022/01/30 11:08:35;;;;;;;13.38;5.25;;;18.60;99.90;;;;;;5052496;28;20165;-76
2022/01/30 11:11:15;;;;;;;12.18;5.03;;;18.60;99.90;;;;;;5052320;28;20259;-76
2022/01/30 11:14:00;;;;;;;12.57;4.55;;;19.00;99.90;;;;;;5052469;28;20538;-76
2022/01/30 11:19:13;;;;;;;13.30;5.50;;;19.10;99.90;;;;;;5052173;28;20176;-76
2022/01/30 11:21:43;;;;;;;12.43;4.90;;;19.40;99.90;;;;;;5052673;28;20165;-75
2022/01/30 11:24:10;;;;;;;12.75;4.78;;;19.40;99.90;;;;;;5052126;28;20251;-75
2022/01/30 11:26:36;;;;;;;13.07;4.60;;;19.40;99.90;;;;;;5052440;28;20664;-75
2022/01/30 11:29:02;;;;;;;14.50;4.72;;;18.60;99.90;;;;;;5052233;28;20204;-75
2022/01/30 11:31:28;;;;;;;15.70;4.25;;;18.00;99.90;;;;;;5052577;28;20278;-74
2022/01/30 11:33:55;;;;;;;15.45;4.90;;;16.50;99.90;;;;;;5052716;28;20613;-76
2022/01/30 11:36:22;;;;;;;18.55;5.30;;;16.00;99.90;;;;;;5052206;28;20173;-75
2022/01/30 11:38:48;;;;;;;15.23;4.53;;;15.60;99.90;;;;;;5052053;28;20253;-75
2022/01/30 11:41:17;;;;;;;21.10;4.80;;;14.90;99.90;;;;;;5052051;28;20166;-74
2022/01/30 11:44:19;;;;;;;25.33;5.13;;;14.40;99.90;;;;;;5052458;28;20197;-72
2022/01/30 11:46:58;;;;;;;15.30;4.77;;;13.60;1.00;;;;;;5052373;28;20165;-72
2022/01/30 11:49:37;;;;;;;18.63;4.87;;;13.00;1.00;;;;;;5051760;28;20180;-73
2022/01/30 11:52:03;;;;;;;18.27;4.83;;;12.80;1.00;;;;;;5051476;28;20704;-73
2022/01/30 11:54:43;;;;;;;20.40;4.90;;;12.80;1.00;;;;;;5034447;28;20169;-73
2022/01/30 11:57:21;;;;;;;16.30;4.60;;;12.60;99.90;;;;;;5051504;28;20324;-72
2022/01/30 11:59:48;;;;;;;20.63;4.47;;;12.30;99.90;;;;;;5052361;28;20169;-72
2022/01/30 12:02:24;;;;;;;17.17;4.70;;;11.80;1.00;;;;;;5051536;28;20722;-72
2022/01/30 12:04:54;;;;;;;24.20;4.77;;;11.60;96.80;;;;;;5052319;28;20180;-72
2022/01/30 12:07:35;;;;;;;20.80;4.40;;;11.50;97.90;;;;;;5051230;28;20201;-73
2022/01/30 12:10:15;;;;;;;16.90;4.53;;;11.30;98.50;;;;;;5051833;28;20656;-71
2022/01/30 12:12:51;;;;;;;21.03;4.13;;;11.00;99.30;;;;;;5052101;28;20227;-72
2022/01/30 12:15:37;;;;;;;20.17;4.90;;;10.80;99.90;;;;;;5052103;28;20565;-72
2022/01/30 12:18:07;;;;;;;20.33;4.70;;;11.00;99.90;;;;;;5051779;28;20649;-72
2022/01/30 12:21:04;;;;;;;18.80;4.33;;;10.90;99.90;;;;;;5051981;28;20170;-73
2022/01/30 12:23:36;;;;;;;16.23;4.70;;;10.80;99.90;;;;;;5053163;28;20215;-72
2022/01/30 12:26:08;;;;;;;26.27;4.60;;;10.90;99.90;;;;;;5054595;28;20261;-72
2022/01/30 12:28:53;;;;;;;16.83;4.57;;;10.80;99.90;;;;;;5055825;28;20253;-72
2022/01/30 12:31:30;;;;;;;15.60;4.40;;;10.90;99.90;;;;;;5055295;28;20209;-72
2022/01/30 12:34:03;;;;;;;18.27;4.50;;;10.90;99.90;;;;;;5055674;28;20165;-72
2022/01/30 12:36:32;;;;;;;15.70;4.83;;;11.00;99.90;;;;;;5054650;28;20177;-74
2022/01/30 12:39:01;;;;;;;14.53;4.47;;;11.10;99.70;;;;;;5055409;28;20173;-72
2022/01/30 12:41:29;;;;;;;16.10;4.47;;;11.10;99.50;;;;;;5055291;28;20165;-72
2022/01/30 12:43:57;;;;;;;19.40;4.13;;;11.10;98.70;;;;;;5054910;28;20169;-73
2022/01/30 12:46:31;;;;;;;13.10;4.10;;;11.20;98.50;;;;;;5055605;28;20197;-73
2022/01/30 12:49:03;;;;;;;19.20;6.60;;;11.30;98.20;;;;;;5054863;28;20180;-72
2022/01/30 12:51:29;;;;;;;18.90;4.40;;;11.30;97.90;;;;;;5054844;28;20226;-72
2022/01/30 12:53:56;;;;;;;13.73;4.53;;;11.20;98.00;;;;;;5054731;28;20559;-72
2022/01/30 12:56:23;;;;;;;17.87;4.40;;;11.20;97.30;;;;;;5054670;28;20166;-72
2022/01/30 12:58:52;;;;;;;18.10;4.43;;;11.00;97.30;;;;;;5055026;28;20231;-72
2022/01/30 13:01:17;;;;;;;14.80;4.03;;;10.90;97.50;;;;;;5054538;28;20232;-72
2022/01/30 13:03:43;;;;;;;16.03;3.80;;;11.00;97.20;;;;;;5054800;28;20173;-72
2022/01/30 13:06:09;;;;;;;59.93;31.33;;;11.10;96.30;;;;;;5054309;28;20170;-71
2022/01/30 13:08:54;;;;;;;15.80;3.93;;;11.20;95.80;;;;;;5054526;28;20173;-73
2022/01/30 13:11:22;;;;;;;17.67;6.60;;;11.50;95.60;;;;;;5054637;28;20213;-74
2022/01/30 13:14:00;;;;;;;18.50;4.40;;;11.80;94.80;;;;;;5055213;28;20197;-73
2022/01/30 13:16:46;;;;;;;11.20;3.67;;;11.90;94.10;;;;;;5054861;28;20208;-73
2022/01/30 13:19:14;;;;;;;12.67;3.73;;;12.00;92.30;;;;;;5053624;28;20177;-73
2022/01/30 13:21:46;;;;;;;9.97;3.63;;;12.20;91.10;;;;;;5054766;28;20184;-72
2022/01/30 13:24:18;;;;;;;9.77;3.97;;;12.30;90.50;;;;;;5054933;28;20715;-72
2022/01/30 13:26:45;;;;;;;12.53;4.20;;;12.30;90.30;;;;;;5055015;28;20244;-72
2022/01/30 13:29:18;;;;;;;13.07;3.90;;;12.20;90.60;;;;;;5053842;28;20181;-72
2022/01/30 13:31:51;;;;;;;16.13;4.80;;;12.30;90.50;;;;;;5054477;28;20223;-72
2022/01/30 13:34:28;;;;;;;13.33;4.07;;;12.30;88.40;;;;;;5053978;28;20169;-72
2022/01/30 13:37:03;;;;;;;14.77;4.27;;;12.40;88.90;;;;;;5054215;28;20169;-72
2022/01/30 13:39:46;;;;;;;12.63;4.77;;;12.50;90.00;;;;;;5053928;28;20185;-72
2022/01/30 13:42:48;;;;;;;12.17;4.63;;;12.30;86.50;;;;;;5053783;28;20185;-72
2022/01/30 13:47:53;;;;;;;12.43;3.93;;;12.00;1.00;;;;;;4992141;28;20179;-72
2022/01/30 13:50:21;;;;;;;15.30;4.13;;;11.70;1.00;;;;;;4992047;28;20301;-73
2022/01/30 13:52:47;;;;;;;9.17;3.60;;;11.60;1.00;;;;;;4993106;28;20701;-72
2022/01/30 13:55:13;;;;;;;17.27;4.30;;;11.60;1.00;;;;;;4992482;28;20186;-73
2022/01/30 13:57:42;;;;;;;13.77;3.80;;;11.40;1.00;;;;;;4992373;28;20635;-72
2022/01/30 14:00:18;;;;;;;14.87;4.00;;;11.30;1.00;;;;;;4991907;28;20584;-72